Time;durP1;ratioP1;P1;durP2;ratioP2;P2;SDS_P1;SDS_P2;PMS_P1;PMS_P2;Temp;Humidity;BMP_temperature;BMP_pressure;BME280_temperature;BME280_humidity;BME280_pressure;Samples;Min_cycle;Max_cycle;Signal;HPM_P1;HPM_P2
2023/04/15 00:01:41;;;;;;;11.27;5.43;;;;;;;7.25;85.58;99722.09;8386776;28;20404;-61
2023/04/15 00:05:42;;;;;;;8.10;5.20;;;;;;;7.22;85.40;99720.53;8409029;28;20032;-61
2023/04/15 00:09:43;;;;;;;12.55;5.50;;;;;;;7.18;85.34;99713.75;8408908;28;20119;-60
2023/04/15 00:13:44;;;;;;;12.10;5.28;;;;;;;7.00;86.75;99709.19;8398652;28;20210;-60
2023/04/15 00:17:45;;;;;;;14.57;5.53;;;;;;;6.99;86.94;99708.34;8393618;28;20043;-61
2023/04/15 00:21:46;;;;;;;10.07;5.45;;;;;;;6.81;87.74;99710.00;8409290;27;20036;-61
2023/04/15 00:25:46;;;;;;;11.52;5.50;;;;;;;6.74;88.48;99703.44;8393040;28;20393;-61
2023/04/15 00:29:47;;;;;;;10.27;5.45;;;;;;;6.66;88.29;99716.72;8393366;28;20397;-61
2023/04/15 00:33:47;;;;;;;10.40;5.45;;;;;;;6.34;89.40;99716.00;8390798;28;20037;-61
2023/04/15 00:37:48;;;;;;;9.15;5.78;;;;;;;6.18;91.33;99725.50;8393034;28;20040;-61
2023/04/15 00:41:49;;;;;;;8.80;5.90;;;;;;;6.25;92.14;99711.44;8391400;28;20150;-61
2023/04/15 00:45:52;;;;;;;12.45;5.47;;;;;;;6.50;92.11;99705.63;8392766;28;20072;-61
2023/04/15 00:49:52;;;;;;;9.35;5.82;;;;;;;6.23;91.27;99718.78;8389967;28;20115;-61
2023/04/15 00:53:53;;;;;;;14.52;6.57;;;;;;;6.15;90.89;99726.63;8413632;27;20041;-62
2023/04/15 00:57:54;;;;;;;12.38;5.80;;;;;;;6.17;90.79;99730.03;8394049;28;20508;-61
2023/04/15 01:01:55;;;;;;;12.63;6.25;;;;;;;6.12;90.93;99736.75;8393926;28;20037;-61
2023/04/15 01:05:57;;;;;;;11.60;4.90;;;;;;;6.10;91.09;99726.16;8392303;28;20036;-61
2023/04/15 01:09:58;;;;;;;13.90;5.57;;;;;;;5.92;91.58;99733.13;8390985;28;20117;-61
2023/04/15 01:13:58;;;;;;;9.27;5.15;;;;;;;6.21;90.71;99723.41;8391613;28;20041;-61
2023/04/15 01:17:59;;;;;;;12.43;5.75;;;;;;;6.34;88.83;99720.53;8393705;28;20124;-58
2023/04/15 01:22:01;;;;;;;10.90;6.15;;;;;;;6.41;87.97;99717.19;8405264;27;20036;-60
2023/04/15 01:26:05;;;;;;;11.25;5.28;;;;;;;6.39;88.15;99724.50;8412155;27;20040;-61
2023/04/15 01:30:07;;;;;;;8.85;5.45;;;;;;;6.33;88.71;99714.31;8393112;28;20036;-61
2023/04/15 01:34:08;;;;;;;12.27;5.55;;;;;;;6.22;88.95;99705.50;8393577;28;20180;-61
2023/04/15 01:38:10;;;;;;;12.60;5.50;;;;;;;6.08;89.57;99714.72;8408863;28;20040;-61
2023/04/15 01:42:11;;;;;;;10.52;5.72;;;;;;;5.96;89.96;99710.41;8392136;28;20036;-61
2023/04/15 01:46:11;;;;;;;10.00;5.68;;;;;;;5.77;90.89;99711.09;8392766;28;20083;-61
2023/04/15 01:50:12;;;;;;;13.80;5.50;;;;;;;5.67;91.34;99709.31;8392121;28;20187;-61
2023/04/15 01:54:13;;;;;;;10.98;5.55;;;;;;;5.60;91.87;99700.97;8412071;27;20044;-61
2023/04/15 01:58:13;;;;;;;9.68;5.15;;;;;;;5.62;91.90;99706.19;8392814;28;20043;-62
2023/04/15 02:02:15;;;;;;;9.05;5.13;;;;;;;5.70;91.79;99707.22;8424625;28;20054;-62
2023/04/15 02:06:15;;;;;;;8.38;5.35;;;;;;;5.69;91.51;99707.38;8392271;28;20420;-62
2023/04/15 02:10:16;;;;;;;13.23;5.97;;;;;;;5.65;92.12;99713.97;8391988;28;20039;-61
2023/04/15 02:14:16;;;;;;;13.50;5.50;;;;;;;5.45;93.49;99714.78;8391625;28;20032;-61
2023/04/15 02:18:17;;;;;;;10.50;5.97;;;;;;;5.43;93.56;99719.44;8391817;28;20052;-61
2023/04/15 02:22:17;;;;;;;12.20;5.80;;;;;;;5.35;93.88;99719.22;8402836;27;20484;-61
2023/04/15 02:26:21;;;;;;;7.25;5.18;;;;;;;5.44;93.15;99724.66;8404806;27;20466;-61
2023/04/15 02:30:22;;;;;;;10.65;6.38;;;;;;;5.45;92.74;99722.81;8369841;28;20037;-62
2023/04/15 02:34:23;;;;;;;8.65;4.82;;;;;;;5.39;92.61;99721.50;8357907;28;20501;-62
2023/04/15 02:38:24;;;;;;;9.77;5.65;;;;;;;5.26;93.25;99725.34;8358192;28;20455;-61
2023/04/15 02:42:26;;;;;;;13.63;5.65;;;;;;;5.19;93.78;99726.81;8357868;28;20033;-62
2023/04/15 02:46:27;;;;;;;6.63;4.82;;;;;;;5.18;93.63;99725.09;8358353;28;20044;-56
2023/04/15 02:50:27;;;;;;;7.15;4.70;;;;;;;5.07;94.21;99725.16;8358357;28;20049;-56
2023/04/15 02:54:28;;;;;;;7.38;4.75;;;;;;;5.03;93.77;99729.06;8409992;27;20036;-56
2023/04/15 02:58:28;;;;;;;10.23;4.72;;;;;;;5.08;92.87;99732.19;8389991;28;20041;-61
2023/04/15 03:02:38;;;;;;;13.35;5.55;;;;;;;5.12;92.70;99744.38;8390571;28;20515;-61
2023/04/15 03:06:38;;;;;;;7.03;5.13;;;;;;;5.02;92.68;99748.78;8389762;28;20036;-61
2023/04/15 03:10:42;;;;;;;10.37;5.33;;;;;;;4.93;93.51;99738.81;8388456;28;20385;-61
2023/04/15 03:14:42;;;;;;;8.77;5.03;;;;;;;4.86;93.55;99742.97;8390165;28;20040;-61
2023/04/15 03:18:43;;;;;;;7.20;5.10;;;;;;;4.79;93.72;99747.13;8405710;28;20091;-61
2023/04/15 03:22:43;;;;;;;9.75;4.90;;;;;;;4.70;93.92;99739.81;8409426;27;20028;-61
2023/04/15 03:26:44;;;;;;;9.85;4.70;;;;;;;4.71;93.78;99744.19;8402807;27;20047;-61
2023/04/15 03:30:49;;;;;;;10.88;5.20;;;;;;;4.66;93.46;99744.56;8389549;28;20043;-61
2023/04/15 03:34:50;;;;;;;9.40;4.97;;;;;;;4.63;93.68;99741.28;8389987;28;20044;-61
2023/04/15 03:38:50;;;;;;;7.38;4.53;;;;;;;4.63;93.93;99741.28;8389437;28;20048;-61
2023/04/15 03:42:50;;;;;;;10.77;5.10;;;;;;;4.49;94.84;99750.41;8389495;28;20067;-62
2023/04/15 03:46:51;;;;;;;7.75;4.90;;;;;;;4.32;95.42;99747.34;8389846;28;20105;-61
2023/04/15 03:50:51;;;;;;;8.10;4.82;;;;;;;4.32;96.03;99748.19;8392545;27;20039;-62
2023/04/15 03:54:52;;;;;;;9.48;5.30;;;;;;;4.18;97.35;99755.59;8405271;27;20055;-61
2023/04/15 03:58:52;;;;;;;11.43;5.15;;;;;;;4.20;96.67;99767.03;8389616;28;20098;-61
2023/04/15 04:02:52;;;;;;;8.00;4.43;;;;;;;4.13;97.00;99763.97;8389289;28;20595;-62
2023/04/15 04:06:53;;;;;;;11.45;5.07;;;;;;;4.24;95.80;99757.81;8389550;28;20033;-61
2023/04/15 04:10:53;;;;;;;10.00;4.32;;;;;;;4.24;95.44;99766.66;8389299;28;20090;-62
2023/04/15 04:14:54;;;;;;;11.18;4.80;;;;;;;4.30;95.09;99768.03;8404914;28;20119;-56
2023/04/15 04:18:54;;;;;;;8.30;4.70;;;;;;;4.24;94.37;99776.53;8389555;28;20048;-56
2023/04/15 04:22:55;;;;;;;10.32;5.45;;;;;;;4.24;95.40;99784.56;8409885;27;20502;-56
2023/04/15 04:26:56;;;;;;;13.07;5.15;;;;;;;4.19;95.02;99790.25;8433334;28;20048;-56
2023/04/15 04:30:56;;;;;;;8.07;5.63;;;;;;;4.24;95.78;99798.75;8389328;28;20332;-59
2023/04/15 04:34:56;;;;;;;7.57;4.63;;;;;;;4.22;94.20;99789.16;8389243;28;20371;-56
2023/04/15 04:38:57;;;;;;;7.85;4.68;;;;;;;4.35;94.04;99798.78;8388078;28;20060;-56
2023/04/15 04:42:58;;;;;;;8.93;4.85;;;;;;;4.47;93.45;99805.00;8388447;28;20491;-56
2023/04/15 04:46:58;;;;;;;7.80;4.53;;;;;;;4.45;93.29;99796.25;8389424;28;20042;-56
2023/04/15 04:50:59;;;;;;;10.90;4.80;;;;;;;4.44;93.40;99798.06;8413644;27;20044;-56
2023/04/15 04:55:00;;;;;;;12.25;4.57;;;;;;;4.39;94.13;99802.09;8411504;27;20040;-57
2023/04/15 04:59:00;;;;;;;13.63;5.28;;;;;;;4.45;94.38;99804.28;8410191;28;20090;-56
2023/04/15 05:03:01;;;;;;;6.70;4.80;;;;;;;4.45;94.93;99801.63;8385007;28;20041;-56
2023/04/15 05:07:01;;;;;;;10.68;4.38;;;;;;;4.63;94.15;99810.88;8380273;28;20037;-56
2023/04/15 05:11:02;;;;;;;8.68;4.47;;;;;;;4.57;93.75;99827.41;8374171;28;20552;-56
2023/04/15 05:15:04;;;;;;;8.50;4.60;;;;;;;4.55;94.35;99837.38;8390020;28;20095;-56
2023/04/15 05:19:05;;;;;;;10.18;4.18;;;;;;;4.74;94.90;99834.97;8387796;28;20044;-56
2023/04/15 05:23:05;;;;;;;8.38;4.20;;;;;;;4.84;94.78;99831.44;8415066;27;20180;-56
2023/04/15 05:27:07;;;;;;;7.35;4.20;;;;;;;4.86;94.67;99834.00;8400707;28;20037;-56
2023/04/15 05:31:07;;;;;;;9.68;3.92;;;;;;;5.15;94.11;99843.22;8392188;28;20032;-61
2023/04/15 05:35:08;;;;;;;10.07;4.60;;;;;;;5.43;92.28;99840.03;8393332;28;20143;-61
2023/04/15 05:39:08;;;;;;;8.65;4.30;;;;;;;5.58;92.22;99854.88;8393726;28;20044;-61
2023/04/15 05:43:09;;;;;;;6.65;4.53;;;;;;;6.07;90.04;99849.84;8393023;28;20051;-61
2023/04/15 05:47:09;;;;;;;8.95;4.30;;;;;;;6.29;89.46;99852.44;8393054;28;20050;-61
2023/04/15 05:51:10;;;;;;;7.75;4.38;;;;;;;6.16;90.62;99862.47;8405580;28;20519;-61
2023/04/15 05:55:11;;;;;;;9.43;5.40;;;;;;;6.52;90.81;99854.00;8391895;28;20123;-60
2023/04/15 05:59:11;;;;;;;6.95;5.03;;;;;;;6.73;91.77;99870.97;8393069;28;20086;-61
2023/04/15 06:03:12;;;;;;;8.73;5.10;;;;;;;6.76;90.75;99870.69;8405621;28;20064;-62
2023/04/15 06:07:12;;;;;;;11.52;5.20;;;;;;;7.29;89.02;99876.78;8401201;28;20036;-61
2023/04/15 06:11:13;;;;;;;11.15;5.40;;;;;;;7.50;86.67;99880.22;8411321;27;20045;-61
2023/04/15 06:15:14;;;;;;;10.23;4.70;;;;;;;7.64;84.09;99878.03;8390815;28;20048;-61
2023/04/15 06:19:14;;;;;;;8.82;5.20;;;;;;;7.87;83.66;99868.69;8391813;28;20152;-61
2023/04/15 06:23:15;;;;;;;8.02;5.35;;;;;;;7.99;82.87;99882.88;8430104;27;20055;-61
2023/04/15 06:27:16;;;;;;;7.65;5.03;;;;;;;7.88;85.65;99886.56;8397748;27;20041;-61
2023/04/15 06:31:16;;;;;;;9.57;5.03;;;;;;;7.87;89.01;99905.53;8397464;28;20367;-61
2023/04/15 06:35:17;;;;;;;10.20;5.10;;;;;;;7.97;89.62;99901.84;8376730;28;20040;-62
2023/04/15 06:39:17;;;;;;;11.30;5.45;;;;;;;8.03;84.35;99903.97;8394527;28;20102;-61
2023/04/15 06:43:19;;;;;;;10.63;5.22;;;;;;;8.30;84.84;99907.88;8387687;28;20544;-61
2023/04/15 06:47:19;;;;;;;11.00;5.57;;;;;;;8.64;85.37;99912.69;8381925;28;20543;-61
2023/04/15 06:51:20;;;;;;;11.90;4.85;;;;;;;9.12;82.88;99913.44;8383631;28;20490;-61
2023/04/15 06:55:20;;;;;;;11.30;5.35;;;;;;;9.49;80.99;99908.91;8377176;28;20408;-61
2023/04/15 06:59:20;;;;;;;10.90;4.97;;;;;;;9.84;79.95;99913.56;8403619;27;20041;-56
2023/04/15 07:03:21;;;;;;;9.73;4.90;;;;;;;10.26;78.64;99927.41;8395487;28;20032;-56
2023/04/15 07:07:21;;;;;;;8.20;4.88;;;;;;;10.39;78.78;99928.72;8372483;28;20032;-55
2023/04/15 07:11:22;;;;;;;8.02;4.60;;;;;;;10.47;79.57;99936.06;8361927;28;20459;-55
2023/04/15 07:15:22;;;;;;;16.23;6.00;;;;;;;10.38;82.23;99945.09;8367351;28;20041;-56
2023/04/15 07:19:23;;;;;;;10.57;5.82;;;;;;;10.31;83.52;99947.53;8372561;28;20051;-56
2023/04/15 07:23:23;;;;;;;12.45;5.60;;;;;;;10.46;83.00;99954.13;8378401;28;20036;-56
2023/04/15 07:27:24;;;;;;;11.40;5.80;;;;;;;10.88;84.79;99974.13;8370554;28;20086;-55
2023/04/15 07:31:26;;;;;;;10.82;5.65;;;;;;;10.92;83.44;99975.50;8372890;28;20086;-55
2023/04/15 07:35:27;;;;;;;17.20;5.88;;;;;;;11.09;84.32;99971.09;8383480;28;20047;-55
2023/04/15 07:39:28;;;;;;;16.45;6.25;;;;;;;11.26;82.27;99972.91;8382357;28;20032;-55
2023/04/15 07:43:28;;;;;;;16.30;6.30;;;;;;;11.35;81.47;99989.03;8386206;28;20032;-55
2023/04/15 07:47:28;;;;;;;17.75;7.78;;;;;;;11.39;78.59;99993.16;8371070;28;20109;-56
2023/04/15 07:51:29;;;;;;;14.38;8.45;;;;;;;11.66;78.24;99989.47;8373331;28;20047;-56
2023/04/15 07:55:30;;;;;;;18.17;8.30;;;;;;;11.69;78.59;100002.69;8360865;28;20041;-56
2023/04/15 07:59:32;;;;;;;23.92;9.63;;;;;;;11.67;78.75;100000.13;8392068;28;20568;-56
2023/04/15 08:03:32;;;;;;;15.90;9.30;;;;;;;12.17;79.98;99992.06;8382280;28;20442;-56
2023/04/15 08:07:33;;;;;;;20.17;9.70;;;;;;;12.38;79.42;100010.63;8389010;27;20048;-55
2023/04/15 08:11:34;;;;;;;17.60;9.90;;;;;;;12.72;79.66;100005.97;8363503;28;20080;-56
2023/04/15 08:15:34;;;;;;;18.00;10.10;;;;;;;13.01;78.47;100011.78;8365049;28;20041;-56
2023/04/15 08:19:34;;;;;;;18.52;10.57;;;;;;;13.41;78.93;100009.06;8379308;28;20442;-55
2023/04/15 08:23:35;;;;;;;16.33;11.00;;;;;;;13.39;74.97;100013.84;8411856;27;20119;-56
2023/04/15 08:27:36;;;;;;;18.30;10.00;;;;;;;13.74;73.81;100013.44;8387251;27;20081;-56
2023/04/15 08:31:36;;;;;;;17.88;11.05;;;;;;;13.69;73.61;100021.25;8385021;28;20029;-56
2023/04/15 08:35:37;;;;;;;13.48;9.90;;;;;;;13.63;71.28;100028.22;8379241;28;20043;-56
2023/04/15 08:39:37;;;;;;;18.70;11.75;;;;;;;13.61;72.47;100034.88;8363275;28;20232;-56
2023/04/15 08:43:52;;;;;;;14.60;10.20;;;;;;;13.70;70.75;100029.22;8387055;28;20568;-56
2023/04/15 08:47:55;;;;;;;17.27;10.32;;;;;;;13.99;69.92;100034.09;8387045;28;20416;-56
2023/04/15 08:51:58;;;;;;;13.50;8.90;;;;;;;13.94;69.42;100036.50;8401402;27;20060;-56
2023/04/15 08:56:04;;;;;;;13.23;8.77;;;;;;;14.13;69.20;100043.41;8395711;27;20044;-60
2023/04/15 09:00:05;;;;;;;9.45;7.18;;;;;;;14.58;68.45;100046.31;8387007;28;20033;-60
2023/04/15 09:04:06;;;;;;;9.38;4.20;;;;;;;14.46;64.48;100048.59;8384672;28;20094;-60
2023/04/15 09:08:07;;;;;;;5.03;3.88;;;;;;;14.16;64.17;100051.22;8382726;28;20041;-60
2023/04/15 09:12:09;;;;;;;7.65;4.10;;;;;;;14.23;63.89;100054.91;8382602;28;20052;-61
2023/04/15 09:16:09;;;;;;;5.82;4.32;;;;;;;14.34;64.43;100052.72;8385429;28;20482;-60
2023/04/15 09:20:13;;;;;;;5.93;3.60;;;;;;;14.27;62.83;100059.84;8399871;28;20113;-61
2023/04/15 09:24:14;;;;;;;5.50;3.72;;;;;;;14.43;62.46;100070.72;8386183;27;20045;-61
2023/04/15 09:28:23;;;;;;;6.25;3.50;;;;;;;14.23;62.54;100077.56;8380560;28;20048;-61
2023/04/15 09:32:23;;;;;;;5.35;2.63;;;;;;;14.29;62.10;100085.03;8384066;28;20424;-56
2023/04/15 09:36:24;;;;;;;5.60;3.70;;;;;;;14.49;62.38;100094.44;8363272;28;20117;-55
2023/04/15 09:40:40;;;;;;;5.15;4.13;;;;;;;14.96;61.62;100088.97;8386850;28;20035;-56
2023/04/15 09:44:41;;;;;;;6.40;3.33;;;;;;;15.41;61.88;100092.59;8386025;28;20523;-56
2023/04/15 09:48:42;;;;;;;5.20;3.03;;;;;;;15.73;58.87;100098.84;8387531;28;20040;-56
2023/04/15 09:52:43;;;;;;;7.88;2.85;;;;;;;15.74;57.80;100113.09;8405982;27;20123;-55
2023/04/15 09:56:44;;;;;;;5.90;2.92;;;;;;;15.47;59.21;100110.09;8387124;28;20479;-56
2023/04/15 10:00:48;;;;;;;5.05;3.10;;;;;;;15.80;58.75;100111.53;8386236;28;20033;-56
2023/04/15 10:04:49;;;;;;;7.93;3.67;;;;;;;16.38;57.68;100116.25;8384290;28;20115;-55
2023/04/15 10:10:12;;;;;;;7.07;3.53;;;;;;;16.74;56.83;100118.03;8387575;27;20399;-54
2023/04/15 10:14:14;;;;;;;6.57;3.85;;;;;;;16.86;56.81;100115.66;8368827;28;20037;-53
2023/04/15 13:12:29;;;;;;;34.47;5.78;;;;;;;13.31;72.61;100304.34;8305663;27;20427;-58
2023/04/15 13:16:31;;;;;;;5.35;4.70;;;;;;;13.12;73.60;100320.88;8334923;28;20048;-58
2023/04/15 13:20:31;;;;;;;6.47;5.10;;;;;;;13.00;73.55;100323.03;8337446;28;20056;-58
2023/04/15 13:24:32;;;;;;;8.23;5.55;;;;;;;12.91;74.12;100332.09;8307258;28;20572;-61
2023/04/15 13:28:32;;;;;;;8.57;5.80;;;;;;;12.87;75.14;100332.56;8309581;28;20671;-60
2023/04/15 13:32:32;;;;;;;7.60;6.07;;;;;;;12.89;75.64;100342.25;8345081;28;20045;-59
2023/04/15 13:36:33;;;;;;;9.13;5.82;;;;;;;12.69;75.34;100357.00;8343263;28;20091;-60
2023/04/15 13:40:33;;;;;;;8.57;5.85;;;;;;;12.68;76.11;100354.47;8344225;28;20049;-56
2023/04/15 13:44:34;;;;;;;8.10;6.00;;;;;;;12.74;77.30;100368.25;8343589;28;20033;-57
2023/04/15 13:48:35;;;;;;;6.65;4.43;;;;;;;12.78;75.71;100368.78;8343396;28;20083;-56
2023/04/15 13:52:35;;;;;;;5.93;4.75;;;;;;;12.67;76.08;100371.75;8326725;28;20315;-57
2023/04/15 13:56:36;;;;;;;7.22;5.70;;;;;;;12.71;76.52;100375.84;8311865;28;20057;-57
2023/04/15 14:00:36;;;;;;;7.53;5.20;;;;;;;12.73;76.04;100381.97;8326790;28;20401;-56
2023/04/15 14:04:37;;;;;;;7.75;4.10;;;;;;;12.55;75.25;100365.72;8349456;28;20044;-57
2023/04/15 14:08:37;;;;;;;5.35;3.85;;;;;;;12.54;75.43;100390.28;8341900;28;20109;-56
2023/04/15 14:12:38;;;;;;;4.07;3.67;;;;;;;12.69;75.30;100388.72;8366094;28;20048;-56
2023/04/15 14:16:38;;;;;;;4.63;3.53;;;;;;;12.63;74.98;100392.06;8373157;28;20075;-56
2023/04/15 14:20:39;;;;;;;5.18;4.50;;;;;;;12.52;76.23;100392.28;8356227;28;20072;-56
2023/04/15 14:24:39;;;;;;;4.63;3.72;;;;;;;12.42;76.67;100408.66;8354569;28;20041;-56
2023/04/15 14:28:40;;;;;;;6.22;4.50;;;;;;;12.32;77.37;100415.16;8355005;28;20056;-56
2023/04/15 14:32:40;;;;;;;6.53;4.50;;;;;;;12.22;78.41;100417.06;8352710;28;20471;-57
2023/04/15 14:36:41;;;;;;;5.82;4.15;;;;;;;12.25;78.63;100422.19;8352106;28;20056;-56
2023/04/15 14:40:42;;;;;;;7.25;4.57;;;;;;;12.26;78.08;100419.31;8350744;28;20123;-56
2023/04/15 14:44:43;;;;;;;5.18;4.15;;;;;;;12.44;77.83;100422.06;8353992;28;20124;-57
2023/04/15 14:48:44;;;;;;;5.97;4.05;;;;;;;12.71;77.44;100421.94;8354487;28;20037;-56
2023/04/15 14:52:44;;;;;;;5.20;3.95;;;;;;;12.82;76.92;100427.16;8341562;28;20523;-57
2023/04/15 14:56:45;;;;;;;6.55;4.07;;;;;;;12.88;77.31;100443.66;8353201;28;20103;-57
2023/04/15 15:00:45;;;;;;;6.32;3.65;;;;;;;12.77;77.50;100438.47;8352347;28;20451;-57
2023/04/15 15:04:46;;;;;;;6.70;4.32;;;;;;;12.67;77.84;100445.84;8342806;28;20806;-57
2023/04/15 15:08:47;;;;;;;4.40;3.83;;;;;;;12.64;77.41;100450.72;8347561;28;20044;-56
2023/04/15 15:12:48;;;;;;;7.32;4.07;;;;;;;12.59;77.57;100448.47;8383561;28;20078;-57
2023/04/15 15:16:48;;;;;;;5.78;3.80;;;;;;;12.59;77.02;100448.47;8367473;28;20037;-56
2023/04/15 15:20:49;;;;;;;5.43;3.50;;;;;;;12.51;77.36;100450.25;8334306;28;20545;-56
2023/04/15 15:24:49;;;;;;;4.95;4.03;;;;;;;12.43;77.23;100461.88;8326774;28;20410;-56
2023/04/15 15:28:50;;;;;;;5.00;3.65;;;;;;;12.44;77.47;100470.88;8342241;28;20048;-62
2023/04/15 15:32:50;;;;;;;9.93;4.25;;;;;;;12.41;77.62;100466.59;8332605;28;20037;-62
2023/04/15 15:36:51;;;;;;;5.40;3.33;;;;;;;12.36;78.46;100478.91;8335020;28;20037;-63
2023/04/15 15:40:52;;;;;;;6.70;4.60;;;;;;;12.31;78.80;100481.22;8333629;28;20065;-62
2023/04/15 15:44:53;;;;;;;5.63;3.97;;;;;;;12.30;79.54;100487.66;8332653;28;20045;-63
2023/04/15 15:48:54;;;;;;;5.28;3.85;;;;;;;12.39;79.08;100479.47;8324430;28;20201;-63
2023/04/15 15:52:54;;;;;;;5.93;3.42;;;;;;;12.48;77.83;100488.53;8335743;28;20064;-63
2023/04/15 15:56:56;;;;;;;5.60;3.45;;;;;;;12.60;78.26;100493.56;8336215;28;20037;-62
2023/04/15 16:00:56;;;;;;;5.97;3.75;;;;;;;12.53;78.36;100491.66;8324497;28;20049;-62
2023/04/15 16:04:57;;;;;;;7.72;3.90;;;;;;;12.46;79.56;100501.38;8325712;28;20206;-63
2023/04/15 16:08:57;;;;;;;5.35;3.63;;;;;;;12.45;79.57;100507.81;8344772;28;20472;-63
2023/04/15 16:12:58;;;;;;;5.30;3.33;;;;;;;12.40;80.18;100504.69;8351495;28;20041;-63
2023/04/15 16:16:58;;;;;;;4.00;3.05;;;;;;;12.43;79.30;100513.41;8343689;28;20044;-63
2023/04/15 16:20:59;;;;;;;4.50;2.92;;;;;;;12.43;79.48;100517.94;8349508;28;20499;-63
2023/04/15 16:24:59;;;;;;;4.82;3.03;;;;;;;12.35;80.16;100526.00;8340084;28;20128;-63
2023/04/15 16:29:00;;;;;;;3.38;2.60;;;;;;;12.30;80.78;100528.31;8290685;28;20199;-62
2023/04/15 16:33:01;;;;;;;6.13;3.80;;;;;;;12.25;82.06;100536.03;8333144;28;20098;-61
2023/04/15 16:37:01;;;;;;;5.80;3.63;;;;;;;12.17;82.38;100533.25;8322501;28;20048;-61
2023/04/15 16:41:02;;;;;;;4.80;3.58;;;;;;;12.12;82.56;100546.38;8300069;28;20107;-61
2023/04/15 16:45:02;;;;;;;5.05;3.38;;;;;;;12.02;82.31;100551.00;8329115;28;20051;-60
2023/04/15 16:49:03;;;;;;;4.15;3.05;;;;;;;11.93;83.37;100551.88;8303854;28;20135;-60
2023/04/15 16:53:03;;;;;;;3.22;2.60;;;;;;;11.86;82.72;100563.31;8301207;28;20103;-60
2023/04/15 16:57:04;;;;;;;4.70;2.55;;;;;;;11.79;83.16;100567.63;8306145;28;20029;-61
2023/04/15 17:01:04;;;;;;;5.93;3.25;;;;;;;11.80;83.09;100574.72;8309990;28;20049;-61
2023/04/15 17:05:05;;;;;;;6.53;3.80;;;;;;;11.70;83.95;100568.50;8345474;28;20048;-57
2023/04/15 17:09:06;;;;;;;5.28;3.42;;;;;;;11.73;84.69;100578.19;8339619;28;20136;-56
2023/04/15 17:13:06;;;;;;;5.40;3.50;;;;;;;11.62;84.52;100586.50;8338541;28;20504;-57
2023/04/15 17:17:07;;;;;;;4.75;2.88;;;;;;;11.54;85.05;100584.47;8332583;28;20053;-57
2023/04/15 17:21:07;;;;;;;5.15;2.88;;;;;;;11.55;85.02;100606.97;8333792;28;20098;-57
2023/04/15 17:25:08;;;;;;;4.88;2.67;;;;;;;11.47;84.84;100610.38;8310940;28;20064;-57
2023/04/15 17:29:09;;;;;;;2.75;2.05;;;;;;;11.46;84.76;100605.97;8332670;28;20473;-57
2023/04/15 17:33:09;;;;;;;2.80;2.60;;;;;;;11.47;84.21;100609.56;8335538;28;20546;-57
2023/04/15 17:37:10;;;;;;;2.95;2.38;;;;;;;11.40;85.07;100609.25;8334204;28;20064;-57
2023/04/15 17:41:10;;;;;;;6.32;2.60;;;;;;;11.38;86.06;100622.06;8326621;28;20044;-56
2023/04/15 17:45:11;;;;;;;3.08;2.53;;;;;;;11.31;87.17;100620.09;8317397;28;20060;-57
2023/04/15 17:49:11;;;;;;;4.18;2.30;;;;;;;11.25;85.85;100626.94;8329945;28;20041;-58
2023/04/15 17:53:11;;;;;;;3.00;2.38;;;;;;;11.14;85.89;100629.78;8320573;28;20426;-57
2023/04/15 17:57:12;;;;;;;3.10;2.30;;;;;;;11.12;86.84;100633.63;8351223;28;20538;-61
2023/04/15 18:01:13;;;;;;;4.35;2.10;;;;;;;11.11;87.44;100640.91;8372501;28;20102;-61
2023/04/15 18:05:13;;;;;;;4.78;2.40;;;;;;;11.05;87.63;100638.75;8338401;28;20095;-62
2023/04/15 18:09:17;;;;;;;5.10;2.38;;;;;;;11.03;88.30;100654.25;8336420;28;20040;-61
2023/04/15 18:13:17;;;;;;;3.65;2.40;;;;;;;11.01;88.25;100664.34;8337120;28;20386;-61
2023/04/15 18:17:19;;;;;;;3.40;2.63;;;;;;;11.00;88.13;100659.94;8349944;28;20040;-60
2023/04/15 18:21:19;;;;;;;2.60;2.15;;;;;;;11.01;88.61;100667.06;8342726;28;20038;-56
2023/04/15 18:25:20;;;;;;;4.15;2.60;;;;;;;11.00;88.25;100664.50;8302318;28;20608;-56
2023/04/15 18:29:20;;;;;;;5.68;2.20;;;;;;;10.94;87.88;100673.16;8331513;28;20053;-56
2023/04/15 18:33:22;;;;;;;5.20;2.25;;;;;;;10.89;88.35;100683.56;8338609;28;20037;-56
2023/04/15 18:37:23;;;;;;;5.20;2.38;;;;;;;10.82;89.23;100694.06;8323457;28;20044;-56
2023/04/15 18:41:24;;;;;;;4.25;2.65;;;;;;;10.74;89.86;100696.59;8337692;28;20049;-63
2023/04/15 18:45:25;;;;;;;6.20;2.58;;;;;;;10.74;90.94;100717.41;8348290;28;20061;-62
2023/04/15 18:49:26;;;;;;;8.65;2.88;;;;;;;10.68;91.23;100717.94;8350602;28;20032;-61
2023/04/15 18:53:26;;;;;;;4.57;2.90;;;;;;;10.68;92.43;100726.06;8350491;28;20033;-60
2023/04/15 18:57:27;;;;;;;4.65;3.47;;;;;;;10.67;92.96;100743.28;8346642;28;20116;-61
2023/04/15 19:01:28;;;;;;;6.93;3.85;;;;;;;10.63;93.58;100745.38;8328348;28;20063;-61
2023/04/15 19:05:29;;;;;;;5.18;3.17;;;;;;;10.59;95.36;100752.06;8348842;28;20043;-61
2023/04/15 19:09:30;;;;;;;7.57;4.07;;;;;;;10.39;100.00;100760.19;8339881;28;20037;-61
2023/04/15 19:13:30;;;;;;;5.95;4.38;;;;;;;10.20;100.00;100771.75;8320068;28;20041;-61
2023/04/15 19:17:31;;;;;;;13.27;4.47;;;;;;;10.10;100.00;100768.13;8341281;28;20094;-60
2023/04/15 19:21:31;;;;;;;9.05;4.47;;;;;;;10.08;100.00;100774.63;8343473;28;20034;-60
2023/04/15 19:25:32;;;;;;;11.50;4.68;;;;;;;9.97;100.00;100786.31;8329813;28;20565;-57
2023/04/15 19:29:33;;;;;;;9.00;4.68;;;;;;;9.80;100.00;100795.00;8344309;28;20084;-58
2023/04/15 19:33:33;;;;;;;8.65;5.30;;;;;;;9.67;100.00;100805.13;8340464;28;20037;-63
2023/04/15 19:37:33;;;;;;;8.73;5.30;;;;;;;9.60;100.00;100810.16;8351507;28;20040;-63
2023/04/15 19:41:35;;;;;;;9.15;5.40;;;;;;;9.53;100.00;100808.97;8351237;28;20041;-63
2023/04/15 19:45:35;;;;;;;8.70;5.00;;;;;;;9.49;100.00;100807.47;8341654;28;20063;-62
2023/04/15 19:49:36;;;;;;;12.65;5.32;;;;;;;9.44;100.00;100822.34;8322253;28;20041;-62
2023/04/15 19:53:37;;;;;;;14.18;6.93;;;;;;;9.42;100.00;100824.28;8325789;28;20557;-62
2023/04/15 19:57:37;;;;;;;9.15;6.32;;;;;;;9.42;100.00;100827.00;8340893;28;20485;-60
2023/04/15 20:01:38;;;;;;;14.65;7.32;;;;;;;9.38;100.00;100831.81;8359078;28;20385;-60
2023/04/15 20:05:39;;;;;;;16.73;7.57;;;;;;;9.34;100.00;100830.31;8326339;28;20127;-61
2023/04/15 20:09:42;;;;;;;17.38;9.05;;;;;;;9.32;100.00;100836.84;8337202;28;20071;-62
2023/04/15 20:13:43;;;;;;;13.68;8.50;;;;;;;9.33;100.00;100838.56;8334090;28;20080;-61
2023/04/15 20:17:43;;;;;;;17.52;10.13;;;;;;;9.29;100.00;100842.47;8344987;28;20049;-61
2023/04/15 20:21:44;;;;;;;20.85;10.10;;;;;;;9.27;100.00;100841.75;8351058;28;20041;-61
2023/04/15 20:25:44;;;;;;;12.50;9.10;;;;;;;9.23;100.00;100840.28;8348981;28;20041;-62
2023/04/15 20:29:45;;;;;;;21.40;10.88;;;;;;;9.24;100.00;100850.09;8345814;28;20593;-61
2023/04/15 20:33:45;;;;;;;18.77;8.43;;;;;;;9.22;100.00;100835.88;8346050;28;20151;-61
2023/04/15 20:37:47;;;;;;;18.08;10.15;;;;;;;9.20;100.00;100841.38;8324200;28;20044;-61
2023/04/15 20:41:49;;;;;;;21.75;8.95;;;;;;;9.12;100.00;100851.94;8338098;28;20037;-62
2023/04/15 20:45:50;;;;;;;14.45;7.78;;;;;;;9.03;100.00;100851.81;8343583;28;21050;-62
2023/04/15 20:49:50;;;;;;;20.42;11.43;;;;;;;9.06;100.00;100857.81;8345205;28;20044;-63
2023/04/15 20:53:51;;;;;;;24.48;9.43;;;;;;;9.03;100.00;100858.06;8304456;28;20044;-62
2023/04/15 20:57:51;;;;;;;24.05;10.00;;;;;;;8.98;100.00;100862.09;8339555;28;20127;-63
2023/04/15 21:01:52;;;;;;;15.70;9.50;;;;;;;9.02;100.00;100864.44;8343901;28;20048;-62
2023/04/15 21:05:53;;;;;;;15.88;8.27;;;;;;;8.98;100.00;100875.59;8346760;28;20102;-62
2023/04/15 21:09:54;;;;;;;20.33;11.35;;;;;;;9.04;100.00;100880.50;8345432;28;20048;-57
2023/04/15 21:13:55;;;;;;;23.33;12.07;;;;;;;9.01;100.00;100875.34;8346395;28;20033;-56
2023/04/15 21:17:55;;;;;;;21.77;10.70;;;;;;;9.03;100.00;100884.19;8328065;28;20041;-56
2023/04/15 21:21:56;;;;;;;22.67;12.10;;;;;;;9.03;100.00;100874.22;8311902;28;20237;-56
2023/04/15 21:25:57;;;;;;;27.48;11.38;;;;;;;9.00;100.00;100885.25;8324619;28;20132;-56
2023/04/15 21:29:58;;;;;;;30.52;13.00;;;;;;;8.97;100.00;100890.06;8343759;28;20044;-56
2023/04/15 21:33:58;;;;;;;29.25;14.30;;;;;;;8.99;100.00;100893.47;8351787;28;20083;-56
2023/04/15 21:37:59;;;;;;;27.15;13.32;;;;;;;9.00;100.00;100889.81;8346796;28;20044;-56